createdAt,value
2022-12-23T00:01:53.417Z,5.10
2022-12-23T00:04:20.812Z,5.10
2022-12-23T00:06:48.022Z,5.10
2022-12-23T00:09:15.246Z,5.10
2022-12-23T00:12:02.373Z,5.10
2022-12-23T00:14:48.155Z,5.10
2022-12-23T00:17:22.754Z,5.10
2022-12-23T00:19:53.664Z,5.10
2022-12-23T00:22:40.907Z,5.20
2022-12-23T00:25:08.387Z,5.20
2022-12-23T00:27:37.641Z,5.20
2022-12-23T00:30:08.201Z,5.20
2022-12-23T00:32:35.470Z,5.20
2022-12-23T00:35:03.026Z,5.20
2022-12-23T00:37:33.203Z,5.20
2022-12-23T00:40:18.650Z,5.20
2022-12-23T00:42:54.948Z,5.20
2022-12-23T00:45:22.171Z,5.20
2022-12-23T00:48:07.738Z,5.20
2022-12-23T00:50:37.199Z,5.20
2022-12-23T00:53:06.425Z,5.30
2022-12-23T00:55:33.550Z,5.20
2022-12-23T00:58:03.652Z,5.20
2022-12-23T01:00:49.484Z,5.20
2022-12-23T01:03:34.901Z,5.20
2022-12-23T01:06:03.067Z,5.20
2022-12-23T01:08:30.515Z,5.30
2022-12-23T01:10:57.784Z,5.20
2022-12-23T01:13:24.906Z,5.30
2022-12-23T01:15:52.409Z,5.30
2022-12-23T01:18:19.585Z,5.30
2022-12-23T01:20:46.741Z,5.30
2022-12-23T01:23:15.144Z,5.30
2022-12-23T01:25:42.332Z,5.30
2022-12-23T01:28:09.575Z,5.30
2022-12-23T01:30:38.459Z,5.40
2022-12-23T01:33:05.839Z,5.40
2022-12-23T01:35:33.111Z,5.40
2022-12-23T01:38:00.382Z,5.40
2022-12-23T01:40:27.662Z,5.40
2022-12-23T01:42:54.895Z,5.40
2022-12-23T01:45:33.526Z,5.40
2022-12-23T01:48:11.417Z,5.40
2022-12-23T01:50:49.473Z,5.40
2022-12-23T01:53:35.899Z,5.30
2022-12-23T01:56:08.052Z,5.30
2022-12-23T01:58:40.546Z,5.40
2022-12-23T02:01:28.324Z,5.40
2022-12-23T02:03:59.905Z,5.40
2022-12-23T02:07:07.554Z,5.40
2022-12-23T02:09:40.428Z,5.50
2022-12-23T02:12:43.737Z,5.50
2022-12-23T02:15:45.196Z,5.50
2022-12-23T02:18:33.699Z,5.50
2022-12-23T02:21:19.292Z,5.50
2022-12-23T02:24:26.973Z,5.50
2022-12-23T02:27:14.823Z,5.50
2022-12-23T02:30:02.273Z,5.50
2022-12-23T02:33:03.172Z,5.50
2022-12-23T02:36:05.035Z,5.50
2022-12-23T02:38:41.147Z,5.50
2022-12-23T02:41:28.896Z,5.50
2022-12-23T02:44:10.457Z,5.50
2022-12-23T02:46:47.716Z,5.50
2022-12-23T02:49:26.463Z,5.60
2022-12-23T02:51:56.733Z,5.50
2022-12-23T02:54:31.938Z,5.60
2022-12-23T02:57:01.020Z,5.60
2022-12-23T02:59:32.429Z,5.60
2022-12-23T03:02:01.128Z,5.60
2022-12-23T03:04:28.639Z,5.60
2022-12-23T03:06:57.761Z,5.60
2022-12-23T03:09:31.064Z,5.60
2022-12-23T03:12:35.761Z,5.60
2022-12-23T03:15:10.329Z,5.60
2022-12-23T03:18:06.909Z,5.60
2022-12-23T03:21:00.778Z,5.60
2022-12-23T03:23:33.923Z,5.60
2022-12-23T03:26:38.069Z,5.50
2022-12-23T03:29:29.024Z,5.50
2022-12-23T03:31:59.232Z,5.50
2022-12-23T03:34:30.715Z,5.50
2022-12-23T03:37:03.088Z,5.60
2022-12-23T03:39:35.352Z,5.50
2022-12-23T03:42:15.498Z,5.60
2022-12-23T03:45:10.662Z,5.60
2022-12-23T03:48:05.837Z,5.60
2022-12-23T03:50:34.204Z,5.60
2022-12-23T03:53:26.162Z,5.60
2022-12-23T03:55:59.567Z,5.60
2022-12-23T03:58:53.658Z,5.60
2022-12-23T04:01:46.197Z,5.60
2022-12-23T04:04:30.586Z,5.60
2022-12-23T04:07:09.036Z,5.60
2022-12-23T04:09:37.124Z,5.60
2022-12-23T04:12:04.724Z,5.60
2022-12-23T04:14:34.520Z,5.60
2022-12-23T04:17:01.913Z,5.60
2022-12-23T04:19:29.082Z,5.60
2022-12-23T04:21:57.272Z,5.60
2022-12-23T04:24:24.909Z,5.60
2022-12-23T04:26:52.321Z,5.60
2022-12-23T04:29:19.783Z,5.50
2022-12-23T04:31:47.065Z,5.50
2022-12-23T04:34:14.400Z,5.60
2022-12-23T04:36:41.799Z,5.50
2022-12-23T04:39:10.176Z,5.50
2022-12-23T04:41:37.415Z,5.50
2022-12-23T04:44:04.840Z,5.50
2022-12-23T04:46:32.185Z,5.60
2022-12-23T04:48:59.348Z,5.60
2022-12-23T04:51:26.560Z,5.60
2022-12-23T04:53:53.769Z,5.60
2022-12-23T04:56:20.980Z,5.60
2022-12-23T04:58:48.178Z,5.60
2022-12-23T05:01:15.576Z,5.60
2022-12-23T05:03:43.171Z,5.60
2022-12-23T05:06:10.664Z,5.60
2022-12-23T05:08:37.806Z,5.70
2022-12-23T05:11:05.265Z,5.70
2022-12-23T05:13:32.449Z,5.70
2022-12-23T05:15:59.748Z,5.70
2022-12-23T05:18:27.067Z,5.70
2022-12-23T05:20:55.265Z,5.60
2022-12-23T05:23:22.374Z,5.70
2022-12-23T05:25:54.213Z,5.70
2022-12-23T05:28:23.074Z,5.70
2022-12-23T05:30:50.344Z,5.70
2022-12-23T05:33:17.558Z,5.70
2022-12-23T05:35:44.777Z,5.70
2022-12-23T05:38:11.987Z,5.70
2022-12-23T05:40:39.139Z,5.70
2022-12-23T05:43:06.538Z,5.80
2022-12-23T05:45:36.479Z,5.80
2022-12-23T05:48:03.915Z,5.80
2022-12-23T05:50:31.127Z,5.90
2022-12-23T05:52:58.528Z,5.90
2022-12-23T05:55:26.596Z,5.90
2022-12-23T05:57:54.306Z,5.90
2022-12-23T06:00:21.930Z,5.80
2022-12-23T06:02:53.870Z,5.80
2022-12-23T06:05:22.146Z,5.80
2022-12-23T06:07:49.665Z,5.80
2022-12-23T06:10:17.320Z,5.80
2022-12-23T06:12:44.570Z,5.80
2022-12-23T06:15:12.788Z,5.80
2022-12-23T06:17:39.967Z,5.80
2022-12-23T06:20:07.967Z,5.80
2022-12-23T06:22:35.185Z,5.80
2022-12-23T06:25:02.685Z,5.80
2022-12-23T06:27:30.161Z,5.80
2022-12-23T06:29:57.589Z,5.80
2022-12-23T06:32:24.966Z,5.80
2022-12-23T06:34:53.510Z,5.80
2022-12-23T06:37:21.430Z,5.80
2022-12-23T06:39:51.374Z,5.80
2022-12-23T06:42:18.564Z,5.80
2022-12-23T06:44:45.837Z,5.80
2022-12-23T06:47:13.224Z,5.80
2022-12-23T06:49:40.373Z,5.90
2022-12-23T06:52:07.655Z,5.90
2022-12-23T06:54:34.777Z,5.90
2022-12-23T06:57:02.041Z,5.90
2022-12-23T06:59:30.133Z,5.90
2022-12-23T07:01:57.477Z,5.90
2022-12-23T07:04:24.750Z,5.90
2022-12-23T07:06:51.936Z,6.00
2022-12-23T07:09:19.126Z,6.00
2022-12-23T07:11:46.591Z,6.00
2022-12-23T07:14:13.758Z,6.00
2022-12-23T07:16:41.116Z,6.00
2022-12-23T07:19:08.531Z,6.00
2022-12-23T07:21:36.906Z,6.00
2022-12-23T07:24:04.567Z,6.00
2022-12-23T07:26:31.728Z,6.00
2022-12-23T07:28:58.808Z,6.00
2022-12-23T07:31:25.962Z,6.10
2022-12-23T07:33:55.801Z,6.10
2022-12-23T07:36:23.119Z,6.10
2022-12-23T07:38:51.864Z,6.10
2022-12-23T07:41:19.384Z,6.10
2022-12-23T07:43:46.733Z,6.10
2022-12-23T07:46:13.934Z,6.10
2022-12-23T07:48:44.504Z,6.10
2022-12-23T07:51:11.930Z,6.10
2022-12-23T07:53:39.183Z,6.10
2022-12-23T07:56:06.714Z,6.10
2022-12-23T07:58:34.067Z,6.10
2022-12-23T08:01:03.624Z,6.20
2022-12-23T08:03:31.199Z,6.20
2022-12-23T08:06:03.945Z,6.20
2022-12-23T08:08:32.363Z,6.20
2022-12-23T08:11:10.389Z,6.20
2022-12-23T08:13:39.491Z,6.20
2022-12-23T08:16:10.642Z,6.20
2022-12-23T08:18:40.073Z,6.20
2022-12-23T08:21:12.256Z,6.20
2022-12-23T08:23:39.472Z,6.20
2022-12-23T08:26:09.409Z,6.20
2022-12-23T08:28:37.836Z,6.20
2022-12-23T08:31:23.582Z,6.30
2022-12-23T08:33:53.593Z,6.30
2022-12-23T08:36:24.225Z,6.30
2022-12-23T08:38:53.734Z,6.30
2022-12-23T08:41:24.681Z,6.30
2022-12-23T08:46:17.321Z,6.40
2022-12-23T08:48:49.121Z,6.40
2022-12-23T08:51:18.847Z,6.40
2022-12-23T08:53:46.862Z,6.40
2022-12-23T08:56:17.351Z,6.40
2022-12-23T08:58:45.887Z,6.40
2022-12-23T09:01:15.868Z,6.50
2022-12-23T09:03:44.629Z,6.50
2022-12-23T09:06:21.877Z,6.50
2022-12-23T09:08:52.901Z,6.50
2022-12-23T09:11:23.806Z,6.50
2022-12-23T09:13:50.979Z,6.40
2022-12-23T09:16:18.563Z,6.50
2022-12-23T09:18:45.838Z,6.50
2022-12-23T09:21:20.467Z,6.50
2022-12-23T09:23:48.366Z,6.50
2022-12-23T09:26:27.740Z,6.50
2022-12-23T09:28:55.818Z,6.50
2022-12-23T09:31:23.789Z,6.50
2022-12-23T09:33:53.427Z,6.60
2022-12-23T09:36:22.331Z,6.60
2022-12-23T09:38:57.600Z,6.60
2022-12-23T09:41:38.618Z,6.60
2022-12-23T09:44:37.359Z,6.50
2022-12-23T09:47:08.937Z,6.60
2022-12-23T09:49:51.828Z,6.60
2022-12-23T09:52:41.682Z,6.60
2022-12-23T09:55:12.350Z,6.60
2022-12-23T09:57:52.815Z,6.60
2022-12-23T10:00:22.003Z,6.70
2022-12-23T10:03:08.909Z,6.70
2022-12-23T10:05:56.549Z,6.70
2022-12-23T10:09:00.227Z,6.70
2022-12-23T10:11:32.175Z,6.80
2022-12-23T10:14:16.680Z,6.70
2022-12-23T10:16:49.659Z,6.80
2022-12-23T10:19:42.268Z,6.80
2022-12-23T10:22:37.609Z,6.90
2022-12-23T10:25:17.713Z,6.90
2022-12-23T10:27:45.738Z,6.90
2022-12-23T10:33:45.348Z,6.90
2022-12-23T10:36:30.208Z,6.90
2022-12-23T10:39:09.459Z,6.90
2022-12-23T10:42:12.840Z,6.90
2022-12-23T10:45:13.310Z,6.90
2022-12-23T10:48:06.088Z,6.90
2022-12-23T10:50:58.067Z,6.90
2022-12-23T10:53:41.414Z,6.90
2022-12-23T10:56:09.303Z,6.90
2022-12-23T10:58:41.956Z,6.90
2022-12-23T11:01:16.071Z,6.90
2022-12-23T11:04:13.498Z,6.90
2022-12-23T11:07:10.721Z,7.00
2022-12-23T11:09:42.086Z,7.00
2022-12-23T11:12:11.969Z,7.00
2022-12-23T11:14:42.461Z,7.00
2022-12-23T11:17:35.507Z,7.00
2022-12-23T11:20:14.229Z,7.00
2022-12-23T11:23:02.634Z,7.00
2022-12-23T11:25:37.458Z,7.10
2022-12-23T11:28:10.350Z,7.10
2022-12-23T11:31:12.148Z,7.10
2022-12-23T11:33:55.456Z,7.10
2022-12-23T11:36:27.948Z,7.10
2022-12-23T11:39:23.278Z,7.10
2022-12-23T11:41:53.521Z,7.10
2022-12-23T11:44:31.246Z,7.10
2022-12-23T11:47:17.435Z,7.10
2022-12-23T11:49:49.802Z,7.10
2022-12-23T11:52:20.721Z,7.10
2022-12-23T11:55:00.476Z,7.10
2022-12-23T11:57:48.922Z,7.10
2022-12-23T12:00:22.705Z,7.10
2022-12-23T12:02:54.049Z,7.10
2022-12-23T12:05:36.962Z,7.10
2022-12-23T12:08:16.339Z,7.10
2022-12-23T12:10:43.721Z,7.10
2022-12-23T12:13:26.401Z,7.20
2022-12-23T12:16:16.562Z,7.10
2022-12-23T12:18:52.022Z,7.20
2022-12-23T12:21:29.556Z,7.10
2022-12-23T12:24:19.619Z,7.20
2022-12-23T12:26:51.562Z,7.20
2022-12-23T12:29:31.857Z,7.20
2022-12-23T12:32:00.817Z,7.20
2022-12-23T12:34:56.773Z,7.20
2022-12-23T12:37:49.870Z,7.20
2022-12-23T12:40:36.803Z,7.20
2022-12-23T12:43:07.018Z,7.20
2022-12-23T12:45:41.696Z,7.30
2022-12-23T12:48:30.665Z,7.30
2022-12-23T12:51:17.256Z,7.30
2022-12-23T12:54:05.662Z,7.30
2022-12-23T12:56:44.464Z,7.40
2022-12-23T12:59:27.436Z,7.40
2022-12-23T13:02:43.755Z,7.40
2022-12-23T13:05:29.166Z,7.40
2022-12-23T13:08:38.740Z,7.40
2022-12-23T13:11:26.575Z,7.40
2022-12-23T13:13:58.460Z,7.50
2022-12-23T13:16:37.485Z,7.50
2022-12-23T13:19:23.018Z,7.50
2022-12-23T13:21:59.178Z,7.50
2022-12-23T13:24:37.282Z,7.50
2022-12-23T13:27:22.505Z,7.60
2022-12-23T13:30:15.206Z,7.60
2022-12-23T13:33:08.184Z,7.60
2022-12-23T13:35:35.394Z,7.60
2022-12-23T13:38:45.266Z,7.60
2022-12-23T13:41:34.191Z,7.60
2022-12-23T13:44:05.909Z,7.60
2022-12-23T13:46:41.732Z,7.60
2022-12-23T13:49:21.368Z,7.60
2022-12-23T13:52:36.823Z,7.60
2022-12-23T13:55:26.372Z,7.60
2022-12-23T13:58:02.551Z,7.60
2022-12-23T14:00:32.421Z,7.60
2022-12-23T14:03:02.317Z,7.60
2022-12-23T14:05:50.615Z,7.60
2022-12-23T14:08:20.586Z,7.60
2022-12-23T14:11:12.097Z,7.50
2022-12-23T14:13:55.431Z,7.50
2022-12-23T14:16:28.492Z,7.50
2022-12-23T14:19:07.066Z,7.50
2022-12-23T14:21:56.417Z,7.50
2022-12-23T14:24:36.702Z,7.50
2022-12-23T14:27:29.137Z,7.50
2022-12-23T14:30:11.789Z,7.50
2022-12-23T14:32:53.635Z,7.50
2022-12-23T14:35:28.379Z,7.50
2022-12-23T14:38:16.682Z,7.50
2022-12-23T14:40:44.022Z,7.50
2022-12-23T14:43:23.534Z,7.40
2022-12-23T14:45:56.418Z,7.40
2022-12-23T14:48:42.226Z,7.40
2022-12-23T14:51:09.341Z,7.40
2022-12-23T14:53:57.399Z,7.40
2022-12-23T14:56:39.943Z,7.40
2022-12-23T14:59:21.602Z,7.40
2022-12-23T15:02:09.923Z,7.30
2022-12-23T15:04:59.553Z,7.30
2022-12-23T15:07:32.838Z,7.30
2022-12-23T15:10:09.808Z,7.30
2022-12-23T15:12:40.165Z,7.20
2022-12-23T15:15:22.658Z,7.20
2022-12-23T15:18:01.450Z,7.20
2022-12-23T15:20:28.932Z,7.20
2022-12-23T15:23:04.671Z,7.20
2022-12-23T15:25:38.862Z,7.20
2022-12-23T15:28:06.433Z,7.10
2022-12-23T15:30:37.886Z,7.10
2022-12-23T15:33:35.133Z,7.10
2022-12-23T15:35:57.516Z,7.10
2022-12-23T15:38:30.140Z,7.10
2022-12-23T15:41:03.321Z,7.10
2022-12-23T15:43:31.200Z,7.10
2022-12-23T15:46:23.626Z,7.00
2022-12-23T15:48:56.586Z,7.00
2022-12-23T15:52:07.140Z,7.00
2022-12-23T15:54:44.312Z,7.00
2022-12-23T15:57:20.614Z,7.00
2022-12-23T15:59:48.059Z,7.00
2022-12-23T16:05:36.370Z,7.00
2022-12-23T16:08:14.070Z,7.00
2022-12-23T16:10:42.526Z,6.90
2022-12-23T16:13:28.372Z,6.80
2022-12-23T16:15:55.589Z,6.80
2022-12-23T16:18:25.842Z,6.80
2022-12-23T16:21:01.822Z,6.90
2022-12-23T16:23:32.369Z,6.90
2022-12-23T16:26:02.302Z,6.90
2022-12-23T16:28:41.333Z,6.80
2022-12-23T16:31:10.963Z,6.80
2022-12-23T16:34:07.117Z,6.80
2022-12-23T16:36:35.724Z,6.80
2022-12-23T16:39:22.351Z,6.80
2022-12-23T16:41:50.459Z,6.70
2022-12-23T16:44:20.588Z,6.70
2022-12-23T16:46:51.117Z,6.70
2022-12-23T16:49:21.219Z,6.70
2022-12-23T16:51:48.839Z,6.60
2022-12-23T16:54:19.167Z,6.60
2022-12-23T16:56:47.076Z,6.60
2022-12-23T16:59:15.029Z,6.60
2022-12-23T17:01:49.493Z,6.50
2022-12-23T17:04:16.710Z,6.50
2022-12-23T17:06:46.677Z,6.50
2022-12-23T17:09:14.276Z,6.50
2022-12-23T17:11:50.379Z,6.50
2022-12-23T17:14:23.370Z,6.50
2022-12-23T17:16:51.121Z,6.50
2022-12-23T17:19:27.177Z,6.40
2022-12-23T17:22:01.228Z,6.40
2022-12-23T17:24:29.078Z,6.40
2022-12-23T17:26:57.150Z,6.30
2022-12-23T17:29:24.504Z,6.30
2022-12-23T17:31:52.308Z,6.30
2022-12-23T17:34:22.424Z,6.30
2022-12-23T17:36:51.225Z,6.30
2022-12-23T17:39:19.531Z,6.20
2022-12-23T17:41:47.153Z,6.20
2022-12-23T17:44:16.219Z,6.20
2022-12-23T17:46:43.557Z,6.20
2022-12-23T17:49:10.710Z,6.20
2022-12-23T17:51:40.523Z,6.20
2022-12-23T17:54:14.333Z,6.10
2022-12-23T17:56:41.786Z,6.10
2022-12-23T17:59:09.215Z,6.10
2022-12-23T18:01:37.955Z,6.00
2022-12-23T18:04:05.356Z,6.00
2022-12-23T18:06:32.597Z,6.00
2022-12-23T18:08:59.809Z,6.00
2022-12-23T18:11:42.137Z,5.90
2022-12-23T18:14:32.047Z,6.00
2022-12-23T18:16:59.968Z,5.90
2022-12-23T18:19:30.927Z,5.90
2022-12-23T18:21:58.543Z,5.90
2022-12-23T18:24:25.812Z,5.90
2022-12-23T18:26:53.202Z,5.90
2022-12-23T18:29:20.398Z,5.90
2022-12-23T18:31:52.148Z,5.90
2022-12-23T18:34:20.571Z,5.90
2022-12-23T18:36:48.589Z,5.90
2022-12-23T18:39:15.992Z,5.90
2022-12-23T18:41:43.126Z,5.90
2022-12-23T18:44:21.015Z,5.90
2022-12-23T18:46:49.569Z,5.80
2022-12-23T18:49:17.039Z,5.80
2022-12-23T18:51:44.438Z,5.80
2022-12-23T18:54:15.132Z,5.70
2022-12-23T18:56:42.678Z,5.70
2022-12-23T18:59:18.570Z,5.70
2022-12-23T19:01:47.638Z,5.70
2022-12-23T19:04:15.288Z,5.70
2022-12-23T19:06:42.588Z,5.70
2022-12-23T19:09:16.640Z,5.70
2022-12-23T19:11:44.137Z,5.70
2022-12-23T19:14:12.619Z,5.70
2022-12-23T19:16:43.652Z,5.70
2022-12-23T19:19:15.014Z,5.70
2022-12-23T19:21:42.209Z,5.70
2022-12-23T19:24:09.502Z,5.70
2022-12-23T19:26:36.712Z,5.70
2022-12-23T19:29:04.159Z,5.70
2022-12-23T19:31:34.099Z,5.70
2022-12-23T19:34:01.894Z,5.70
2022-12-23T19:36:29.703Z,5.70
2022-12-23T19:38:57.983Z,5.70
2022-12-23T19:41:25.865Z,5.70
2022-12-23T19:43:53.349Z,5.70
2022-12-23T19:46:20.656Z,5.70
2022-12-23T19:48:52.609Z,5.70
2022-12-23T19:51:20.064Z,5.70
2022-12-23T19:53:50.941Z,5.70
2022-12-23T19:56:21.401Z,5.70
2022-12-23T19:58:49.670Z,5.70
2022-12-23T20:01:21.309Z,5.70
2022-12-23T20:03:49.836Z,5.80
2022-12-23T20:06:28.768Z,5.70
2022-12-23T20:09:00.816Z,5.70
2022-12-23T20:11:30.974Z,5.70
2022-12-23T20:14:08.152Z,5.70
2022-12-23T20:16:36.122Z,5.70
2022-12-23T20:19:04.989Z,5.80
2022-12-23T20:21:32.716Z,5.80
2022-12-23T20:24:00.085Z,5.80
2022-12-23T20:26:29.293Z,5.80
2022-12-23T20:28:57.556Z,5.80
2022-12-23T20:31:27.598Z,5.80
2022-12-23T20:33:55.886Z,5.80
2022-12-23T20:36:28.766Z,5.80
2022-12-23T20:38:57.314Z,5.80
2022-12-23T20:41:27.424Z,5.80
2022-12-23T20:44:32.372Z,5.80
2022-12-23T20:46:42.252Z,5.80
2022-12-23T20:49:09.412Z,5.80
2022-12-23T20:51:36.640Z,5.80
2022-12-23T20:54:04.006Z,5.80
2022-12-23T20:56:33.024Z,5.80
2022-12-23T20:59:01.710Z,5.80
2022-12-23T21:01:36.331Z,5.80
2022-12-23T21:04:06.720Z,5.80
2022-12-23T21:06:39.668Z,5.80
2022-12-23T21:09:09.268Z,5.70
2022-12-23T21:11:38.387Z,5.70
2022-12-23T21:14:07.315Z,5.70
2022-12-23T21:16:36.753Z,5.70
2022-12-23T21:19:05.776Z,5.70
2022-12-23T21:21:33.031Z,5.70
2022-12-23T21:24:05.082Z,5.70
2022-12-23T21:26:34.379Z,5.70
2022-12-23T21:29:04.158Z,5.70
2022-12-23T21:31:33.046Z,5.70
2022-12-23T21:34:00.816Z,5.70
2022-12-23T21:36:34.921Z,5.70
2022-12-23T21:39:02.561Z,5.70
2022-12-23T21:41:36.389Z,5.70
2022-12-23T21:44:03.672Z,5.70
2022-12-23T21:46:31.000Z,5.70
2022-12-23T21:48:59.245Z,5.70
2022-12-23T21:51:38.857Z,5.70
2022-12-23T21:54:06.525Z,5.70
2022-12-23T21:56:33.854Z,5.70
2022-12-23T21:59:03.713Z,5.70
2022-12-23T22:01:32.008Z,5.70
2022-12-23T22:03:59.583Z,5.70
2022-12-23T22:06:32.762Z,5.70
2022-12-23T22:09:02.564Z,5.70
2022-12-23T22:11:31.882Z,5.70
2022-12-23T22:14:00.234Z,5.70
2022-12-23T22:16:29.006Z,5.70
2022-12-23T22:18:57.663Z,5.70
2022-12-23T22:21:27.437Z,5.70
2022-12-23T22:23:55.500Z,5.70
2022-12-23T22:26:28.439Z,5.70
2022-12-23T22:28:57.446Z,5.70
2022-12-23T22:31:30.448Z,5.70
2022-12-23T22:33:58.025Z,5.70
2022-12-23T22:36:25.552Z,5.70
2022-12-23T22:38:55.053Z,5.70
2022-12-23T22:41:23.358Z,5.70
2022-12-23T22:43:50.644Z,5.70
2022-12-23T22:46:18.855Z,5.70
2022-12-23T22:48:46.713Z,5.70
2022-12-23T22:51:16.785Z,5.70
2022-12-23T22:53:43.941Z,5.70
2022-12-23T22:56:13.832Z,5.70
2022-12-23T22:58:41.394Z,5.70
2022-12-23T23:01:20.840Z,5.70
2022-12-23T23:03:50.960Z,5.70
2022-12-23T23:06:18.973Z,5.70
2022-12-23T23:08:46.246Z,5.70
2022-12-23T23:11:13.495Z,5.70
2022-12-23T23:13:40.691Z,5.70
2022-12-23T23:16:08.109Z,5.70
2022-12-23T23:18:35.568Z,5.70
2022-12-23T23:21:02.925Z,5.70
2022-12-23T23:23:29.962Z,5.70
2022-12-23T23:25:57.103Z,5.70
2022-12-23T23:28:24.627Z,5.70
2022-12-23T23:31:03.828Z,5.70
2022-12-23T23:33:37.052Z,5.70
2022-12-23T23:36:05.428Z,5.70
2022-12-23T23:38:33.227Z,5.70
2022-12-23T23:41:00.332Z,5.70
2022-12-23T23:43:27.492Z,5.70
2022-12-23T23:45:55.410Z,5.70
2022-12-23T23:48:22.916Z,5.70
2022-12-23T23:50:50.175Z,5.70
2022-12-23T23:53:17.637Z,5.70
2022-12-23T23:55:44.781Z,5.70
2022-12-23T23:58:12.999Z,5.70
